sensor_id;sensor_type;location;lat;lon;timestamp;P1;durP1;ratioP1;P2;durP2;ratioP2
72941;SDS011;69665;55.822;37.330;2023-05-19T00:00:01;3.63;;;1.60;;
72941;SDS011;69665;55.822;37.330;2023-05-19T00:02:37;4.22;;;1.85;;
72941;SDS011;69665;55.822;37.330;2023-05-19T00:05:03;4.65;;;1.92;;
72941;SDS011;69665;55.822;37.330;2023-05-19T00:07:29;5.00;;;1.85;;
72941;SDS011;69665;55.822;37.330;2023-05-19T00:09:56;2.60;;;1.23;;
72941;SDS011;69665;55.822;37.330;2023-05-19T00:12:22;3.67;;;1.60;;
72941;SDS011;69665;55.822;37.330;2023-05-19T00:14:48;3.25;;;1.65;;
72941;SDS011;69665;55.822;37.330;2023-05-19T00:17:14;2.78;;;1.13;;
72941;SDS011;69665;55.822;37.330;2023-05-19T00:19:41;3.53;;;1.23;;
72941;SDS011;69665;55.822;37.330;2023-05-19T00:22:09;3.15;;;1.42;;
72941;SDS011;69665;55.822;37.330;2023-05-19T00:24:35;3.03;;;1.40;;
72941;SDS011;69665;55.822;37.330;2023-05-19T00:27:01;3.70;;;1.27;;
72941;SDS011;69665;55.822;37.330;2023-05-19T00:29:27;3.22;;;1.20;;
72941;SDS011;69665;55.822;37.330;2023-05-19T00:31:53;2.35;;;0.90;;
72941;SDS011;69665;55.822;37.330;2023-05-19T00:34:18;5.38;;;1.05;;
72941;SDS011;69665;55.822;37.330;2023-05-19T00:36:44;1.80;;;0.80;;
72941;SDS011;69665;55.822;37.330;2023-05-19T00:39:12;1.80;;;1.05;;
72941;SDS011;69665;55.822;37.330;2023-05-19T00:41:38;3.97;;;1.60;;
72941;SDS011;69665;55.822;37.330;2023-05-19T00:44:03;3.92;;;1.70;;
72941;SDS011;69665;55.822;37.330;2023-05-19T00:46:30;3.03;;;1.40;;
72941;SDS011;69665;55.822;37.330;2023-05-19T00:48:56;4.65;;;2.28;;
72941;SDS011;69665;55.822;37.330;2023-05-19T00:51:22;5.38;;;2.63;;
72941;SDS011;69665;55.822;37.330;2023-05-19T00:53:50;5.78;;;3.67;;
72941;SDS011;69665;55.822;37.330;2023-05-19T00:56:16;5.53;;;3.30;;
72941;SDS011;69665;55.822;37.330;2023-05-19T00:58:43;4.20;;;1.90;;
72941;SDS011;69665;55.822;37.330;2023-05-19T01:01:09;4.45;;;1.95;;
72941;SDS011;69665;55.822;37.330;2023-05-19T01:03:36;4.82;;;2.30;;
72941;SDS011;69665;55.822;37.330;2023-05-19T01:06:02;3.22;;;1.60;;
72941;SDS011;69665;55.822;37.330;2023-05-19T01:08:32;3.33;;;1.15;;
72941;SDS011;69665;55.822;37.330;2023-05-19T01:11:06;4.20;;;1.38;;
72941;SDS011;69665;55.822;37.330;2023-05-19T01:13:33;4.40;;;1.73;;
72941;SDS011;69665;55.822;37.330;2023-05-19T01:16:02;3.20;;;1.42;;
72941;SDS011;69665;55.822;37.330;2023-05-19T01:32:41;6.30;;;3.13;;
72941;SDS011;69665;55.822;37.330;2023-05-19T01:35:09;5.05;;;2.33;;
72941;SDS011;69665;55.822;37.330;2023-05-19T01:37:38;4.82;;;2.83;;
72941;SDS011;69665;55.822;37.330;2023-05-19T01:40:08;6.35;;;3.03;;
72941;SDS011;69665;55.822;37.330;2023-05-19T01:42:34;7.43;;;4.03;;
72941;SDS011;69665;55.822;37.330;2023-05-19T01:45:04;7.90;;;4.13;;
72941;SDS011;69665;55.822;37.330;2023-05-19T01:47:35;8.40;;;3.80;;
72941;SDS011;69665;55.822;37.330;2023-05-19T01:50:04;7.00;;;4.15;;
72941;SDS011;69665;55.822;37.330;2023-05-19T01:52:31;7.82;;;4.35;;
72941;SDS011;69665;55.822;37.330;2023-05-19T01:54:56;6.68;;;3.53;;
72941;SDS011;69665;55.822;37.330;2023-05-19T02:00:11;7.38;;;3.35;;
72941;SDS011;69665;55.822;37.330;2023-05-19T02:05:30;9.55;;;3.63;;
72941;SDS011;69665;55.822;37.330;2023-05-19T02:08:10;6.75;;;2.80;;
72941;SDS011;69665;55.822;37.330;2023-05-19T02:10:50;6.90;;;3.25;;
72941;SDS011;69665;55.822;37.330;2023-05-19T02:13:35;6.13;;;2.65;;
72941;SDS011;69665;55.822;37.330;2023-05-19T02:16:05;6.68;;;2.65;;
72941;SDS011;69665;55.822;37.330;2023-05-19T02:18:32;8.25;;;3.10;;
72941;SDS011;69665;55.822;37.330;2023-05-19T02:20:59;6.05;;;2.85;;
72941;SDS011;69665;55.822;37.330;2023-05-19T02:23:25;6.68;;;2.80;;
72941;SDS011;69665;55.822;37.330;2023-05-19T02:25:51;7.15;;;2.40;;
72941;SDS011;69665;55.822;37.330;2023-05-19T02:28:17;6.45;;;2.33;;
72941;SDS011;69665;55.822;37.330;2023-05-19T02:30:43;5.47;;;2.38;;
72941;SDS011;69665;55.822;37.330;2023-05-19T02:33:08;9.98;;;2.78;;
72941;SDS011;69665;55.822;37.330;2023-05-19T02:35:35;6.65;;;2.80;;
72941;SDS011;69665;55.822;37.330;2023-05-19T02:38:01;6.85;;;2.60;;
72941;SDS011;69665;55.822;37.330;2023-05-19T02:40:27;6.07;;;2.58;;
72941;SDS011;69665;55.822;37.330;2023-05-19T02:42:55;6.75;;;2.65;;
72941;SDS011;69665;55.822;37.330;2023-05-19T02:45:21;5.82;;;2.88;;
72941;SDS011;69665;55.822;37.330;2023-05-19T02:47:47;6.28;;;2.90;;
72941;SDS011;69665;55.822;37.330;2023-05-19T02:50:12;6.22;;;2.95;;
72941;SDS011;69665;55.822;37.330;2023-05-19T02:52:38;6.07;;;2.70;;
72941;SDS011;69665;55.822;37.330;2023-05-19T02:55:04;7.45;;;3.30;;
72941;SDS011;69665;55.822;37.330;2023-05-19T02:57:30;8.27;;;3.42;;
72941;SDS011;69665;55.822;37.330;2023-05-19T02:59:56;6.88;;;2.95;;
72941;SDS011;69665;55.822;37.330;2023-05-19T03:02:21;6.60;;;2.90;;
72941;SDS011;69665;55.822;37.330;2023-05-19T03:04:47;6.30;;;2.80;;
72941;SDS011;69665;55.822;37.330;2023-05-19T03:07:12;7.80;;;3.05;;
72941;SDS011;69665;55.822;37.330;2023-05-19T03:09:39;6.55;;;3.08;;
72941;SDS011;69665;55.822;37.330;2023-05-19T03:12:05;7.10;;;2.97;;
72941;SDS011;69665;55.822;37.330;2023-05-19T03:14:32;7.10;;;3.25;;
72941;SDS011;69665;55.822;37.330;2023-05-19T03:17:01;7.43;;;3.20;;
72941;SDS011;69665;55.822;37.330;2023-05-19T03:19:27;6.53;;;3.20;;
72941;SDS011;69665;55.822;37.330;2023-05-19T03:21:53;8.98;;;3.42;;
72941;SDS011;69665;55.822;37.330;2023-05-19T03:24:20;9.63;;;3.50;;
72941;SDS011;69665;55.822;37.330;2023-05-19T03:26:46;6.57;;;3.38;;
72941;SDS011;69665;55.822;37.330;2023-05-19T03:29:12;6.78;;;3.25;;
72941;SDS011;69665;55.822;37.330;2023-05-19T03:31:38;9.30;;;4.18;;
72941;SDS011;69665;55.822;37.330;2023-05-19T03:34:04;7.60;;;3.83;;
72941;SDS011;69665;55.822;37.330;2023-05-19T03:36:29;8.40;;;4.13;;
72941;SDS011;69665;55.822;37.330;2023-05-19T03:39:07;9.73;;;4.32;;
72941;SDS011;69665;55.822;37.330;2023-05-19T03:41:33;7.95;;;4.30;;
72941;SDS011;69665;55.822;37.330;2023-05-19T03:44:03;8.35;;;4.32;;
72941;SDS011;69665;55.822;37.330;2023-05-19T03:46:29;10.55;;;4.75;;
72941;SDS011;69665;55.822;37.330;2023-05-19T03:49:09;10.93;;;4.50;;
72941;SDS011;69665;55.822;37.330;2023-05-19T03:51:56;8.15;;;4.95;;
72941;SDS011;69665;55.822;37.330;2023-05-19T03:54:51;12.07;;;4.80;;
72941;SDS011;69665;55.822;37.330;2023-05-19T03:57:18;10.82;;;5.47;;
72941;SDS011;69665;55.822;37.330;2023-05-19T03:59:46;10.75;;;5.75;;
72941;SDS011;69665;55.822;37.330;2023-05-19T04:02:11;10.73;;;5.85;;
72941;SDS011;69665;55.822;37.330;2023-05-19T04:04:37;12.02;;;6.47;;
72941;SDS011;69665;55.822;37.330;2023-05-19T04:07:03;10.45;;;6.00;;
72941;SDS011;69665;55.822;37.330;2023-05-19T04:09:28;9.27;;;5.50;;
72941;SDS011;69665;55.822;37.330;2023-05-19T04:11:56;9.90;;;5.63;;
72941;SDS011;69665;55.822;37.330;2023-05-19T04:14:24;11.38;;;5.63;;
72941;SDS011;69665;55.822;37.330;2023-05-19T04:16:50;11.38;;;5.35;;
72941;SDS011;69665;55.822;37.330;2023-05-19T04:19:16;11.30;;;5.40;;
72941;SDS011;69665;55.822;37.330;2023-05-19T04:21:41;9.07;;;5.40;;
72941;SDS011;69665;55.822;37.330;2023-05-19T04:24:07;8.68;;;4.70;;
72941;SDS011;69665;55.822;37.330;2023-05-19T04:26:33;8.15;;;4.22;;
72941;SDS011;69665;55.822;37.330;2023-05-19T04:28:59;8.60;;;4.28;;
72941;SDS011;69665;55.822;37.330;2023-05-19T04:31:28;10.13;;;5.25;;
72941;SDS011;69665;55.822;37.330;2023-05-19T04:33:54;10.00;;;4.60;;
72941;SDS011;69665;55.822;37.330;2023-05-19T04:36:20;9.52;;;4.68;;
72941;SDS011;69665;55.822;37.330;2023-05-19T04:38:48;11.13;;;4.85;;
72941;SDS011;69665;55.822;37.330;2023-05-19T04:41:19;9.63;;;4.55;;
72941;SDS011;69665;55.822;37.330;2023-05-19T04:43:46;9.82;;;4.85;;
72941;SDS011;69665;55.822;37.330;2023-05-19T04:46:13;10.20;;;5.43;;
72941;SDS011;69665;55.822;37.330;2023-05-19T04:48:39;8.15;;;5.00;;
72941;SDS011;69665;55.822;37.330;2023-05-19T04:51:05;9.10;;;4.97;;
72941;SDS011;69665;55.822;37.330;2023-05-19T04:53:31;11.20;;;5.03;;
72941;SDS011;69665;55.822;37.330;2023-05-19T04:55:58;9.50;;;5.68;;
72941;SDS011;69665;55.822;37.330;2023-05-19T04:58:30;10.27;;;5.78;;
72941;SDS011;69665;55.822;37.330;2023-05-19T05:00:56;10.15;;;5.55;;
72941;SDS011;69665;55.822;37.330;2023-05-19T05:03:23;10.23;;;5.03;;
72941;SDS011;69665;55.822;37.330;2023-05-19T05:05:49;11.02;;;5.50;;
72941;SDS011;69665;55.822;37.330;2023-05-19T05:08:16;11.48;;;5.28;;
72941;SDS011;69665;55.822;37.330;2023-05-19T05:10:48;10.43;;;4.90;;
72941;SDS011;69665;55.822;37.330;2023-05-19T05:13:17;11.90;;;5.50;;
72941;SDS011;69665;55.822;37.330;2023-05-19T05:15:46;9.93;;;5.43;;
72941;SDS011;69665;55.822;37.330;2023-05-19T05:18:13;9.25;;;4.90;;
72941;SDS011;69665;55.822;37.330;2023-05-19T05:20:40;12.50;;;5.82;;
72941;SDS011;69665;55.822;37.330;2023-05-19T05:23:08;9.32;;;5.70;;
72941;SDS011;69665;55.822;37.330;2023-05-19T05:25:36;14.82;;;5.78;;
72941;SDS011;69665;55.822;37.330;2023-05-19T05:28:02;12.65;;;6.18;;
72941;SDS011;69665;55.822;37.330;2023-05-19T05:30:30;10.70;;;5.70;;
72941;SDS011;69665;55.822;37.330;2023-05-19T05:32:58;12.75;;;6.00;;
72941;SDS011;69665;55.822;37.330;2023-05-19T05:35:32;9.15;;;5.15;;
72941;SDS011;69665;55.822;37.330;2023-05-19T05:37:58;12.32;;;5.95;;
72941;SDS011;69665;55.822;37.330;2023-05-19T05:40:25;10.10;;;5.55;;
72941;SDS011;69665;55.822;37.330;2023-05-19T05:42:52;10.80;;;5.82;;
72941;SDS011;69665;55.822;37.330;2023-05-19T05:45:21;11.52;;;6.53;;
72941;SDS011;69665;55.822;37.330;2023-05-19T05:47:48;14.55;;;6.43;;
72941;SDS011;69665;55.822;37.330;2023-05-19T05:50:14;14.55;;;6.15;;
72941;SDS011;69665;55.822;37.330;2023-05-19T05:52:40;12.07;;;6.70;;
72941;SDS011;69665;55.822;37.330;2023-05-19T05:55:11;11.45;;;6.78;;
72941;SDS011;69665;55.822;37.330;2023-05-19T05:57:38;49.50;;;25.40;;
72941;SDS011;69665;55.822;37.330;2023-05-19T06:00:06;43.85;;;24.15;;
72941;SDS011;69665;55.822;37.330;2023-05-19T06:02:48;13.68;;;7.68;;
72941;SDS011;69665;55.822;37.330;2023-05-19T06:05:16;16.65;;;7.95;;
72941;SDS011;69665;55.822;37.330;2023-05-19T06:07:43;18.75;;;10.52;;
72941;SDS011;69665;55.822;37.330;2023-05-19T06:10:13;15.45;;;8.00;;
72941;SDS011;69665;55.822;37.330;2023-05-19T06:12:39;12.65;;;7.88;;
72941;SDS011;69665;55.822;37.330;2023-05-19T06:15:06;20.65;;;10.00;;
72941;SDS011;69665;55.822;37.330;2023-05-19T06:17:52;13.40;;;6.90;;
72941;SDS011;69665;55.822;37.330;2023-05-19T06:20:18;13.50;;;7.85;;
72941;SDS011;69665;55.822;37.330;2023-05-19T06:22:45;15.57;;;8.75;;
72941;SDS011;69665;55.822;37.330;2023-05-19T06:27:40;12.38;;;7.32;;
72941;SDS011;69665;55.822;37.330;2023-05-19T06:30:06;12.40;;;7.30;;
72941;SDS011;69665;55.822;37.330;2023-05-19T06:32:39;14.05;;;7.15;;
72941;SDS011;69665;55.822;37.330;2023-05-19T06:35:06;12.80;;;7.00;;
72941;SDS011;69665;55.822;37.330;2023-05-19T06:37:32;11.75;;;6.47;;
72941;SDS011;69665;55.822;37.330;2023-05-19T06:39:58;13.63;;;6.82;;
72941;SDS011;69665;55.822;37.330;2023-05-19T06:42:24;13.63;;;6.18;;
72941;SDS011;69665;55.822;37.330;2023-05-19T06:45:04;9.55;;;5.20;;
72941;SDS011;69665;55.822;37.330;2023-05-19T06:47:31;10.13;;;5.47;;
72941;SDS011;69665;55.822;37.330;2023-05-19T06:49:57;12.57;;;5.95;;
72941;SDS011;69665;55.822;37.330;2023-05-19T06:52:29;10.52;;;6.50;;
72941;SDS011;69665;55.822;37.330;2023-05-19T06:54:55;13.68;;;6.75;;
72941;SDS011;69665;55.822;37.330;2023-05-19T06:57:21;11.70;;;5.30;;
72941;SDS011;69665;55.822;37.330;2023-05-19T06:59:46;11.13;;;5.47;;
72941;SDS011;69665;55.822;37.330;2023-05-19T07:02:13;11.52;;;5.70;;
72941;SDS011;69665;55.822;37.330;2023-05-19T07:04:38;12.82;;;5.90;;
72941;SDS011;69665;55.822;37.330;2023-05-19T07:07:05;10.35;;;5.55;;
72941;SDS011;69665;55.822;37.330;2023-05-19T07:09:31;8.68;;;4.95;;
72941;SDS011;69665;55.822;37.330;2023-05-19T07:11:57;11.57;;;4.80;;
72941;SDS011;69665;55.822;37.330;2023-05-19T07:14:23;12.65;;;5.75;;
72941;SDS011;69665;55.822;37.330;2023-05-19T07:16:49;10.57;;;4.63;;
72941;SDS011;69665;55.822;37.330;2023-05-19T07:19:15;9.57;;;5.35;;
72941;SDS011;69665;55.822;37.330;2023-05-19T07:21:44;8.52;;;4.32;;
72941;SDS011;69665;55.822;37.330;2023-05-19T07:24:10;12.18;;;5.35;;
72941;SDS011;69665;55.822;37.330;2023-05-19T07:26:36;10.40;;;4.32;;
72941;SDS011;69665;55.822;37.330;2023-05-19T07:29:01;10.43;;;5.30;;
72941;SDS011;69665;55.822;37.330;2023-05-19T07:31:27;10.20;;;4.65;;
72941;SDS011;69665;55.822;37.330;2023-05-19T07:33:52;9.52;;;4.53;;
72941;SDS011;69665;55.822;37.330;2023-05-19T07:36:18;9.85;;;4.13;;
72941;SDS011;69665;55.822;37.330;2023-05-19T07:38:44;7.20;;;3.45;;
72941;SDS011;69665;55.822;37.330;2023-05-19T07:41:11;9.75;;;3.40;;
72941;SDS011;69665;55.822;37.330;2023-05-19T07:43:36;7.28;;;3.10;;
72941;SDS011;69665;55.822;37.330;2023-05-19T07:46:02;11.80;;;3.28;;
72941;SDS011;69665;55.822;37.330;2023-05-19T07:48:28;7.35;;;3.45;;
72941;SDS011;69665;55.822;37.330;2023-05-19T07:50:54;7.43;;;2.92;;
72941;SDS011;69665;55.822;37.330;2023-05-19T07:53:19;6.25;;;3.38;;
72941;SDS011;69665;55.822;37.330;2023-05-19T07:55:47;8.35;;;3.20;;
72941;SDS011;69665;55.822;37.330;2023-05-19T07:58:12;6.45;;;3.13;;
72941;SDS011;69665;55.822;37.330;2023-05-19T08:00:38;7.60;;;2.97;;
72941;SDS011;69665;55.822;37.330;2023-05-19T08:03:07;6.55;;;2.97;;
72941;SDS011;69665;55.822;37.330;2023-05-19T08:05:34;8.27;;;3.38;;
72941;SDS011;69665;55.822;37.330;2023-05-19T08:08:03;8.48;;;3.63;;
72941;SDS011;69665;55.822;37.330;2023-05-19T08:10:29;7.60;;;3.10;;
72941;SDS011;69665;55.822;37.330;2023-05-19T08:12:55;7.78;;;3.75;;
72941;SDS011;69665;55.822;37.330;2023-05-19T08:15:20;7.10;;;2.80;;
72941;SDS011;69665;55.822;37.330;2023-05-19T08:17:46;6.18;;;3.17;;
72941;SDS011;69665;55.822;37.330;2023-05-19T08:20:12;6.20;;;2.90;;
72941;SDS011;69665;55.822;37.330;2023-05-19T08:22:37;7.82;;;2.78;;
72941;SDS011;69665;55.822;37.330;2023-05-19T08:25:03;8.65;;;3.15;;
72941;SDS011;69665;55.822;37.330;2023-05-19T08:27:30;6.53;;;2.83;;
72941;SDS011;69665;55.822;37.330;2023-05-19T08:29:56;8.68;;;3.30;;
72941;SDS011;69665;55.822;37.330;2023-05-19T08:32:22;5.47;;;2.55;;
72941;SDS011;69665;55.822;37.330;2023-05-19T08:34:47;7.38;;;2.83;;
72941;SDS011;69665;55.822;37.330;2023-05-19T08:37:13;4.80;;;2.58;;
72941;SDS011;69665;55.822;37.330;2023-05-19T08:39:39;6.25;;;2.65;;
72941;SDS011;69665;55.822;37.330;2023-05-19T08:42:05;5.00;;;2.70;;
72941;SDS011;69665;55.822;37.330;2023-05-19T08:47:04;5.22;;;2.03;;
72941;SDS011;69665;55.822;37.330;2023-05-19T08:49:34;4.53;;;2.00;;
72941;SDS011;69665;55.822;37.330;2023-05-19T08:52:08;3.83;;;1.90;;
72941;SDS011;69665;55.822;37.330;2023-05-19T08:54:49;7.55;;;2.30;;
72941;SDS011;69665;55.822;37.330;2023-05-19T08:57:20;5.97;;;2.13;;
72941;SDS011;69665;55.822;37.330;2023-05-19T08:59:47;4.30;;;2.08;;
72941;SDS011;69665;55.822;37.330;2023-05-19T09:02:15;5.32;;;1.90;;
72941;SDS011;69665;55.822;37.330;2023-05-19T09:04:41;5.82;;;2.10;;
72941;SDS011;69665;55.822;37.330;2023-05-19T09:09:37;6.50;;;2.10;;
72941;SDS011;69665;55.822;37.330;2023-05-19T09:12:07;5.38;;;1.98;;
72941;SDS011;69665;55.822;37.330;2023-05-19T09:14:32;4.88;;;2.03;;
72941;SDS011;69665;55.822;37.330;2023-05-19T09:16:59;6.93;;;1.98;;
72941;SDS011;69665;55.822;37.330;2023-05-19T09:19:27;4.72;;;2.08;;
72941;SDS011;69665;55.822;37.330;2023-05-19T09:21:56;5.57;;;1.90;;
72941;SDS011;69665;55.822;37.330;2023-05-19T09:24:24;4.75;;;1.50;;
72941;SDS011;69665;55.822;37.330;2023-05-19T09:26:50;5.07;;;2.05;;
72941;SDS011;69665;55.822;37.330;2023-05-19T09:29:20;5.28;;;1.75;;
72941;SDS011;69665;55.822;37.330;2023-05-19T09:31:50;4.80;;;1.80;;
72941;SDS011;69665;55.822;37.330;2023-05-19T09:34:16;5.88;;;1.75;;
72941;SDS011;69665;55.822;37.330;2023-05-19T09:36:41;6.88;;;2.00;;
72941;SDS011;69665;55.822;37.330;2023-05-19T09:39:17;3.53;;;1.60;;
72941;SDS011;69665;55.822;37.330;2023-05-19T09:41:44;4.97;;;1.60;;
72941;SDS011;69665;55.822;37.330;2023-05-19T09:44:20;3.75;;;1.50;;
72941;SDS011;69665;55.822;37.330;2023-05-19T09:46:54;7.15;;;1.90;;
72941;SDS011;69665;55.822;37.330;2023-05-19T09:49:20;5.10;;;1.48;;
72941;SDS011;69665;55.822;37.330;2023-05-19T09:51:53;4.07;;;1.42;;
72941;SDS011;69665;55.822;37.330;2023-05-19T09:54:21;3.28;;;1.45;;
72941;SDS011;69665;55.822;37.330;2023-05-19T09:56:57;4.95;;;1.73;;
72941;SDS011;69665;55.822;37.330;2023-05-19T09:59:24;4.00;;;1.50;;
72941;SDS011;69665;55.822;37.330;2023-05-19T10:01:54;3.33;;;1.20;;
72941;SDS011;69665;55.822;37.330;2023-05-19T10:04:21;5.10;;;1.63;;
72941;SDS011;69665;55.822;37.330;2023-05-19T10:06:51;4.13;;;1.17;;
72941;SDS011;69665;55.822;37.330;2023-05-19T10:09:24;3.88;;;1.23;;
72941;SDS011;69665;55.822;37.330;2023-05-19T10:11:51;5.30;;;1.42;;
72941;SDS011;69665;55.822;37.330;2023-05-19T10:14:24;4.60;;;1.77;;
72941;SDS011;69665;55.822;37.330;2023-05-19T10:16:55;4.32;;;1.65;;
72941;SDS011;69665;55.822;37.330;2023-05-19T10:19:23;4.10;;;1.30;;
72941;SDS011;69665;55.822;37.330;2023-05-19T10:21:51;4.57;;;1.52;;
72941;SDS011;69665;55.822;37.330;2023-05-19T10:24:17;3.85;;;1.50;;
72941;SDS011;69665;55.822;37.330;2023-05-19T10:26:48;5.20;;;1.85;;
72941;SDS011;69665;55.822;37.330;2023-05-19T10:29:16;4.82;;;1.33;;
72941;SDS011;69665;55.822;37.330;2023-05-19T10:31:46;4.90;;;1.63;;
72941;SDS011;69665;55.822;37.330;2023-05-19T10:36:49;6.28;;;1.80;;
72941;SDS011;69665;55.822;37.330;2023-05-19T10:39:37;5.80;;;1.98;;
72941;SDS011;69665;55.822;37.330;2023-05-19T10:47:45;3.03;;;1.25;;
72941;SDS011;69665;55.822;37.330;2023-05-19T10:50:11;4.93;;;1.70;;
72941;SDS011;69665;55.822;37.330;2023-05-19T10:52:37;4.10;;;1.45;;
72941;SDS011;69665;55.822;37.330;2023-05-19T10:55:07;4.75;;;1.48;;
72941;SDS011;69665;55.822;37.330;2023-05-19T10:57:34;2.80;;;1.02;;
72941;SDS011;69665;55.822;37.330;2023-05-19T11:00:25;4.63;;;1.25;;
72941;SDS011;69665;55.822;37.330;2023-05-19T11:02:52;4.38;;;1.27;;
72941;SDS011;69665;55.822;37.330;2023-05-19T11:05:28;4.18;;;1.23;;
72941;SDS011;69665;55.822;37.330;2023-05-19T11:07:55;4.05;;;1.33;;
72941;SDS011;69665;55.822;37.330;2023-05-19T11:10:26;4.07;;;1.50;;
72941;SDS011;69665;55.822;37.330;2023-05-19T11:12:51;4.57;;;1.50;;
72941;SDS011;69665;55.822;37.330;2023-05-19T11:15:20;3.30;;;1.00;;
72941;SDS011;69665;55.822;37.330;2023-05-19T11:17:50;3.78;;;1.20;;
72941;SDS011;69665;55.822;37.330;2023-05-19T11:20:23;4.85;;;1.30;;
72941;SDS011;69665;55.822;37.330;2023-05-19T11:28:16;6.22;;;1.40;;
72941;SDS011;69665;55.822;37.330;2023-05-19T11:30:44;3.28;;;1.05;;
72941;SDS011;69665;55.822;37.330;2023-05-19T11:33:11;5.82;;;1.40;;
72941;SDS011;69665;55.822;37.330;2023-05-19T11:35:38;3.35;;;1.23;;
72941;SDS011;69665;55.822;37.330;2023-05-19T11:38:04;3.88;;;1.15;;
72941;SDS011;69665;55.822;37.330;2023-05-19T11:40:31;4.97;;;0.93;;
72941;SDS011;69665;55.822;37.330;2023-05-19T11:42:57;4.00;;;1.20;;
72941;SDS011;69665;55.822;37.330;2023-05-19T11:45:26;5.72;;;1.20;;
72941;SDS011;69665;55.822;37.330;2023-05-19T11:47:56;5.05;;;1.10;;
72941;SDS011;69665;55.822;37.330;2023-05-19T11:50:23;4.57;;;1.20;;
72941;SDS011;69665;55.822;37.330;2023-05-19T11:52:49;5.53;;;0.95;;
72941;SDS011;69665;55.822;37.330;2023-05-19T11:55:16;3.80;;;1.10;;
72941;SDS011;69665;55.822;37.330;2023-05-19T11:57:55;7.22;;;1.50;;
72941;SDS011;69665;55.822;37.330;2023-05-19T12:00:24;5.43;;;1.25;;
72941;SDS011;69665;55.822;37.330;2023-05-19T12:02:50;3.78;;;1.10;;
72941;SDS011;69665;55.822;37.330;2023-05-19T12:05:25;5.70;;;1.20;;
72941;SDS011;69665;55.822;37.330;2023-05-19T12:07:52;2.03;;;0.77;;
72941;SDS011;69665;55.822;37.330;2023-05-19T12:10:36;3.67;;;1.05;;
72941;SDS011;69665;55.822;37.330;2023-05-19T12:13:03;2.58;;;0.85;;
72941;SDS011;69665;55.822;37.330;2023-05-19T12:15:30;4.63;;;1.23;;
72941;SDS011;69665;55.822;37.330;2023-05-19T12:17:57;4.47;;;1.02;;
72941;SDS011;69665;55.822;37.330;2023-05-19T12:20:24;4.45;;;1.20;;
72941;SDS011;69665;55.822;37.330;2023-05-19T12:22:51;5.85;;;1.83;;
72941;SDS011;69665;55.822;37.330;2023-05-19T12:25:19;3.88;;;1.23;;
72941;SDS011;69665;55.822;37.330;2023-05-19T12:27:45;4.35;;;1.20;;
72941;SDS011;69665;55.822;37.330;2023-05-19T12:30:12;3.97;;;1.10;;
72941;SDS011;69665;55.822;37.330;2023-05-19T12:32:38;2.70;;;0.98;;
72941;SDS011;69665;55.822;37.330;2023-05-19T12:35:04;3.83;;;1.10;;
72941;SDS011;69665;55.822;37.330;2023-05-19T12:37:31;5.32;;;1.20;;
72941;SDS011;69665;55.822;37.330;2023-05-19T12:39:57;3.95;;;0.90;;
72941;SDS011;69665;55.822;37.330;2023-05-19T12:42:27;3.00;;;0.90;;
72941;SDS011;69665;55.822;37.330;2023-05-19T12:45:00;5.72;;;1.50;;
72941;SDS011;69665;55.822;37.330;2023-05-19T12:47:29;4.68;;;1.30;;
72941;SDS011;69665;55.822;37.330;2023-05-19T12:52:32;4.88;;;1.20;;
72941;SDS011;69665;55.822;37.330;2023-05-19T12:55:06;2.75;;;1.00;;
72941;SDS011;69665;55.822;37.330;2023-05-19T12:57:34;3.00;;;1.08;;
72941;SDS011;69665;55.822;37.330;2023-05-19T13:00:01;3.92;;;1.00;;
72941;SDS011;69665;55.822;37.330;2023-05-19T13:02:55;4.80;;;1.00;;
72941;SDS011;69665;55.822;37.330;2023-05-19T13:05:31;2.67;;;1.00;;
72941;SDS011;69665;55.822;37.330;2023-05-19T13:07:59;3.85;;;1.27;;
72941;SDS011;69665;55.822;37.330;2023-05-19T13:10:33;2.42;;;0.85;;
72941;SDS011;69665;55.822;37.330;2023-05-19T13:13:00;3.60;;;1.13;;
72941;SDS011;69665;55.822;37.330;2023-05-19T13:15:31;3.60;;;1.08;;
72941;SDS011;69665;55.822;37.330;2023-05-19T13:18:01;2.28;;;1.00;;
72941;SDS011;69665;55.822;37.330;2023-05-19T13:20:31;4.55;;;1.17;;
72941;SDS011;69665;55.822;37.330;2023-05-19T13:22:57;2.78;;;0.90;;
72941;SDS011;69665;55.822;37.330;2023-05-19T13:25:23;2.97;;;0.90;;
72941;SDS011;69665;55.822;37.330;2023-05-19T13:27:50;3.92;;;0.73;;
72941;SDS011;69665;55.822;37.330;2023-05-19T13:30:16;3.53;;;0.90;;
72941;SDS011;69665;55.822;37.330;2023-05-19T13:32:43;3.65;;;1.13;;
72941;SDS011;69665;55.822;37.330;2023-05-19T13:35:11;4.95;;;0.90;;
72941;SDS011;69665;55.822;37.330;2023-05-19T13:37:38;3.58;;;1.00;;
72941;SDS011;69665;55.822;37.330;2023-05-19T13:40:04;4.43;;;1.42;;
72941;SDS011;69665;55.822;37.330;2023-05-19T13:42:31;3.00;;;1.08;;
72941;SDS011;69665;55.822;37.330;2023-05-19T13:44:57;3.42;;;1.08;;
72941;SDS011;69665;55.822;37.330;2023-05-19T13:47:23;4.03;;;0.93;;
72941;SDS011;69665;55.822;37.330;2023-05-19T13:49:49;4.35;;;1.17;;
72941;SDS011;69665;55.822;37.330;2023-05-19T13:52:16;3.42;;;1.00;;
72941;SDS011;69665;55.822;37.330;2023-05-19T13:54:42;3.78;;;0.98;;
72941;SDS011;69665;55.822;37.330;2023-05-19T13:57:07;5.47;;;1.23;;
72941;SDS011;69665;55.822;37.330;2023-05-19T13:59:33;5.55;;;1.13;;
72941;SDS011;69665;55.822;37.330;2023-05-19T14:01:59;9.40;;;1.58;;
72941;SDS011;69665;55.822;37.330;2023-05-19T14:04:27;4.32;;;1.10;;
72941;SDS011;69665;55.822;37.330;2023-05-19T14:06:53;4.07;;;1.02;;
72941;SDS011;69665;55.822;37.330;2023-05-19T14:09:19;2.40;;;0.70;;
72941;SDS011;69665;55.822;37.330;2023-05-19T14:11:45;4.03;;;0.93;;
72941;SDS011;69665;55.822;37.330;2023-05-19T14:14:11;2.65;;;1.08;;
72941;SDS011;69665;55.822;37.330;2023-05-19T14:16:38;3.00;;;1.10;;
72941;SDS011;69665;55.822;37.330;2023-05-19T14:19:07;5.47;;;0.95;;
72941;SDS011;69665;55.822;37.330;2023-05-19T14:21:33;3.00;;;1.00;;
72941;SDS011;69665;55.822;37.330;2023-05-19T14:23:59;4.88;;;1.13;;
72941;SDS011;69665;55.822;37.330;2023-05-19T14:26:25;5.13;;;1.13;;
72941;SDS011;69665;55.822;37.330;2023-05-19T14:28:51;3.92;;;0.90;;
72941;SDS011;69665;55.822;37.330;2023-05-19T14:31:17;5.38;;;1.30;;
72941;SDS011;69665;55.822;37.330;2023-05-19T14:33:42;2.85;;;0.90;;
72941;SDS011;69665;55.822;37.330;2023-05-19T14:36:08;4.10;;;0.90;;
72941;SDS011;69665;55.822;37.330;2023-05-19T14:38:35;5.50;;;1.33;;
72941;SDS011;69665;55.822;37.330;2023-05-19T14:41:00;2.17;;;0.65;;
72941;SDS011;69665;55.822;37.330;2023-05-19T14:43:29;4.07;;;1.05;;
72941;SDS011;69665;55.822;37.330;2023-05-19T14:45:55;3.42;;;1.00;;
72941;SDS011;69665;55.822;37.330;2023-05-19T14:48:21;2.95;;;1.05;;
72941;SDS011;69665;55.822;37.330;2023-05-19T14:50:47;2.83;;;0.88;;
72941;SDS011;69665;55.822;37.330;2023-05-19T14:53:13;6.70;;;1.00;;
72941;SDS011;69665;55.822;37.330;2023-05-19T14:55:38;3.33;;;1.13;;
72941;SDS011;69665;55.822;37.330;2023-05-19T14:58:05;5.15;;;1.20;;
72941;SDS011;69665;55.822;37.330;2023-05-19T15:00:30;2.55;;;1.00;;
72941;SDS011;69665;55.822;37.330;2023-05-19T15:02:56;3.30;;;1.08;;
72941;SDS011;69665;55.822;37.330;2023-05-19T15:05:21;4.57;;;1.00;;
72941;SDS011;69665;55.822;37.330;2023-05-19T15:07:48;4.72;;;1.08;;
72941;SDS011;69665;55.822;37.330;2023-05-19T15:10:15;3.55;;;1.05;;
72941;SDS011;69665;55.822;37.330;2023-05-19T15:12:41;3.28;;;1.20;;
72941;SDS011;69665;55.822;37.330;2023-05-19T15:15:07;4.80;;;1.40;;
72941;SDS011;69665;55.822;37.330;2023-05-19T15:17:33;4.05;;;1.15;;